createdAt,value
2022-09-05T00:01:31.774Z,1.40
2022-09-05T00:04:24.403Z,1.05
2022-09-05T00:07:37.505Z,1.20
2022-09-05T00:10:36.163Z,1.10
2022-09-05T00:13:09.919Z,1.13
2022-09-05T00:15:43.255Z,1.23
2022-09-05T00:23:35.265Z,1.20
2022-09-05T00:24:33.150Z,1.20
2022-09-05T00:25:00.884Z,1.05
2022-09-05T00:27:48.873Z,1.20
2022-09-05T00:31:07.465Z,1.02
2022-09-05T00:33:32.150Z,1.23
2022-09-05T00:36:10.863Z,1.45
2022-09-05T00:38:41.133Z,1.00
2022-09-05T00:41:12.587Z,1.13
2022-09-05T00:43:42.599Z,1.10
2022-09-05T00:46:15.139Z,1.30
2022-09-05T00:53:05.040Z,1.20
2022-09-05T00:56:03.795Z,1.48
2022-09-05T00:58:50.511Z,1.10
2022-09-05T01:01:37.578Z,1.20
2022-09-05T01:05:01.347Z,1.20
2022-09-05T01:08:15.619Z,1.30
2022-09-05T01:11:09.953Z,1.38
2022-09-05T01:13:55.233Z,1.42
2022-09-05T01:16:29.628Z,1.33
2022-09-05T01:19:33.231Z,1.50
2022-09-05T01:22:18.504Z,1.40
2022-09-05T01:25:10.929Z,1.40
2022-09-05T01:28:49.732Z,1.23
2022-09-05T01:31:02.691Z,1.30
2022-09-05T01:33:55.949Z,1.60
2022-09-05T01:36:51.359Z,1.20
2022-09-05T01:40:14.182Z,1.40
2022-09-05T01:43:07.797Z,1.40
2022-09-05T01:45:50.777Z,1.40
2022-09-05T01:48:46.273Z,1.20
2022-09-05T01:51:29.491Z,1.38
2022-09-05T01:54:24.309Z,1.30
2022-09-05T01:57:19.735Z,1.25
2022-09-05T02:00:04.437Z,1.27
2022-09-05T02:03:16.035Z,1.50
2022-09-05T02:06:20.468Z,1.30
2022-09-05T02:08:56.179Z,1.27
2022-09-05T02:11:54.281Z,1.30
2022-09-05T02:14:43.069Z,1.55
2022-09-05T02:17:49.592Z,1.40
2022-09-05T02:20:30.033Z,1.30
2022-09-05T02:22:56.885Z,1.23
2022-09-05T02:26:02.345Z,1.40
2022-09-05T02:28:49.029Z,1.30
2022-09-05T02:31:26.420Z,1.10
2022-09-05T02:34:18.508Z,1.30
2022-09-05T02:38:00.460Z,1.23
2022-09-05T02:45:03.689Z,1.48
2022-09-05T02:45:21.520Z,1.50
2022-09-05T02:46:57.513Z,1.60
2022-09-05T02:51:15.906Z,1.58
2022-09-05T02:57:27.241Z,1.40
2022-09-05T02:57:33.718Z,1.60
2022-09-05T02:59:36.200Z,1.60
2022-09-05T03:02:26.210Z,1.40
2022-09-05T03:05:08.547Z,1.67
2022-09-05T03:08:13.600Z,1.50
2022-09-05T03:11:12.420Z,1.45
2022-09-05T03:13:58.131Z,1.40
2022-09-05T03:16:58.070Z,1.48
2022-09-05T03:19:46.588Z,1.30
2022-09-05T03:22:22.431Z,1.55
2022-09-05T03:25:10.803Z,1.38
2022-09-05T03:27:52.981Z,1.55
2022-09-05T03:30:21.591Z,1.50
2022-09-05T03:32:57.512Z,1.50
2022-09-05T03:35:51.428Z,1.30
2022-09-05T03:38:48.815Z,1.58
2022-09-05T03:41:40.684Z,1.80
2022-09-05T03:44:25.028Z,1.70
2022-09-05T03:47:11.126Z,1.85
2022-09-05T03:56:10.537Z,1.38
2022-09-05T03:57:24.629Z,1.52
2022-09-05T03:57:28.307Z,1.40
2022-09-05T03:59:41.291Z,1.33
2022-09-05T04:05:46.945Z,1.70
2022-09-05T04:08:18.780Z,1.80
2022-09-05T04:08:29.605Z,1.90
2022-09-05T04:11:11.683Z,1.70
2022-09-05T04:13:46.372Z,1.63
2022-09-05T04:16:24.894Z,1.37
2022-09-05T04:19:28.745Z,1.53
2022-09-05T04:22:20.956Z,1.67
2022-09-05T04:25:18.844Z,1.60
2022-09-05T04:28:02.564Z,1.60
2022-09-05T04:30:40.267Z,1.70
2022-09-05T04:33:36.927Z,1.67
2022-09-05T04:36:43.717Z,1.73
2022-09-05T04:39:19.260Z,1.55
2022-09-05T04:42:11.472Z,1.80
2022-09-05T04:44:50.009Z,1.40
2022-09-05T04:47:29.286Z,1.60
2022-09-05T04:49:56.105Z,1.70
2022-09-05T04:52:49.288Z,1.98
2022-09-05T04:55:42.502Z,2.07
2022-09-05T04:58:56.146Z,1.88
2022-09-05T05:06:00.178Z,2.35
2022-09-05T05:06:14.662Z,1.85
2022-09-05T05:07:23.475Z,1.70
2022-09-05T05:10:39.196Z,1.90
2022-09-05T05:17:56.776Z,1.65
2022-09-05T05:18:15.639Z,1.55
2022-09-05T05:19:21.977Z,1.80
2022-09-05T05:21:57.991Z,1.70
2022-09-05T05:24:41.475Z,1.70
2022-09-05T05:27:27.976Z,1.88
2022-09-05T05:30:04.158Z,1.73
2022-09-05T05:32:48.006Z,1.88
2022-09-05T05:35:26.996Z,1.67
2022-09-05T05:38:04.826Z,2.22
2022-09-05T05:40:50.522Z,2.20
2022-09-05T05:43:33.964Z,2.00
2022-09-05T05:46:01.749Z,1.90
2022-09-05T05:48:39.048Z,1.63
2022-09-05T05:51:34.564Z,1.50
2022-09-05T05:54:23.822Z,1.40
2022-09-05T05:57:21.891Z,1.75
2022-09-05T05:59:56.465Z,1.42
2022-09-05T06:02:58.686Z,1.45
2022-09-05T06:05:54.134Z,1.70
2022-09-05T06:12:45.008Z,1.40
2022-09-05T06:14:56.180Z,1.70
2022-09-05T06:15:26.629Z,1.55
2022-09-05T06:18:50.339Z,1.40
2022-09-05T06:22:06.470Z,1.70
2022-09-05T06:25:16.769Z,1.50
2022-09-05T06:28:18.501Z,1.58
2022-09-05T06:31:30.109Z,1.40
2022-09-05T06:34:32.735Z,1.40
2022-09-05T06:37:26.905Z,1.65
2022-09-05T06:40:09.362Z,1.33
2022-09-05T06:43:02.100Z,1.38
2022-09-05T06:45:59.026Z,1.75
2022-09-05T06:49:31.113Z,1.48
2022-09-05T06:52:16.598Z,1.35
2022-09-05T06:55:03.167Z,1.60
2022-09-05T06:57:56.163Z,1.30
2022-09-05T07:00:51.685Z,2.00
2022-09-05T07:03:52.329Z,1.30
2022-09-05T07:06:46.666Z,1.50
2022-09-05T07:09:42.825Z,1.33
2022-09-05T07:12:30.599Z,1.42
2022-09-05T07:15:15.620Z,1.25
2022-09-05T07:18:22.459Z,1.02
2022-09-05T07:21:17.666Z,1.20
2022-09-05T07:24:53.998Z,1.00
2022-09-05T07:27:09.020Z,1.30
2022-09-05T07:29:53.252Z,1.35
2022-09-05T07:32:31.567Z,1.20
2022-09-05T07:35:01.647Z,1.00
2022-09-05T07:37:40.880Z,1.17
2022-09-05T07:40:24.984Z,1.10
2022-09-05T07:43:27.042Z,1.10
2022-09-05T07:46:12.541Z,1.30
2022-09-05T07:48:45.396Z,1.00
2022-09-05T07:56:47.887Z,1.00
2022-09-05T07:57:09.518Z,1.10
2022-09-05T07:57:50.210Z,1.10
2022-09-05T08:00:26.864Z,1.08
2022-09-05T08:03:12.021Z,1.00
2022-09-05T08:05:45.938Z,0.90
2022-09-05T08:08:28.347Z,1.30
2022-09-05T08:11:24.358Z,1.20
2022-09-05T08:14:40.484Z,0.93
2022-09-05T08:16:55.711Z,0.80
2022-09-05T08:19:37.769Z,1.00
2022-09-05T08:22:07.764Z,0.68
2022-09-05T08:24:55.367Z,0.70
2022-09-05T08:27:25.880Z,0.98
2022-09-05T08:30:25.868Z,0.98
2022-09-05T08:33:11.567Z,0.90
2022-09-05T08:36:01.319Z,1.00
2022-09-05T08:38:40.232Z,0.93
2022-09-05T08:41:13.366Z,1.00
2022-09-05T08:46:37.031Z,0.77
2022-09-05T08:46:55.371Z,0.75
2022-09-05T08:50:04.589Z,0.70
2022-09-05T08:53:26.757Z,0.90
2022-09-05T08:56:05.502Z,0.77
2022-09-05T08:59:28.002Z,0.63
2022-09-05T09:01:55.686Z,0.90
2022-09-05T09:05:01.606Z,1.00
2022-09-05T09:07:51.103Z,1.00
2022-09-05T09:10:55.513Z,0.90
2022-09-05T09:13:54.417Z,1.00
2022-09-05T09:17:00.754Z,0.80
2022-09-05T09:19:46.446Z,1.10
2022-09-05T09:22:42.696Z,0.70
2022-09-05T09:25:33.164Z,0.65
2022-09-05T09:28:50.606Z,0.93
2022-09-05T09:31:55.406Z,0.80
2022-09-05T09:34:33.139Z,0.70
2022-09-05T09:37:51.875Z,0.80
2022-09-05T09:40:52.409Z,0.70
2022-09-05T09:44:08.039Z,0.73
2022-09-05T09:46:51.278Z,0.63
2022-09-05T09:49:44.116Z,0.73
2022-09-05T09:52:36.785Z,0.63
2022-09-05T09:55:43.215Z,0.65
2022-09-05T09:58:22.559Z,1.17
2022-09-05T10:01:09.875Z,0.70
2022-09-05T10:10:34.545Z,0.77
2022-09-05T10:10:52.404Z,0.60
2022-09-05T10:11:37.670Z,0.60
2022-09-05T10:14:47.696Z,0.60
2022-09-05T10:17:57.500Z,0.60
2022-09-05T10:21:15.283Z,0.60
2022-09-05T10:24:10.990Z,0.52
2022-09-05T10:27:15.984Z,0.80
2022-09-05T10:29:46.978Z,0.70
2022-09-05T10:35:19.838Z,0.80
2022-09-05T10:35:22.388Z,0.60
2022-09-05T10:38:22.130Z,1.20
2022-09-05T10:41:21.114Z,1.75
2022-09-05T10:43:56.246Z,0.85
2022-09-05T10:46:57.077Z,1.20
2022-09-05T10:49:30.733Z,2.67
2022-09-05T10:52:19.345Z,2.35
2022-09-05T10:55:17.510Z,2.83
2022-09-05T10:58:04.676Z,0.88
2022-09-05T11:02:29.927Z,0.90
2022-09-05T11:04:12.155Z,0.75
2022-09-05T11:06:42.692Z,2.00
2022-09-05T11:09:16.467Z,0.70
2022-09-05T11:11:46.947Z,0.77
2022-09-05T11:14:31.663Z,1.10
2022-09-05T11:17:47.764Z,0.90
2022-09-05T11:20:48.510Z,0.60
2022-09-05T11:23:41.440Z,1.10
2022-09-05T11:26:46.773Z,0.70
2022-09-05T11:29:36.580Z,0.93
2022-09-05T11:37:59.643Z,0.90
2022-09-05T11:39:53.883Z,0.95
2022-09-05T11:39:57.410Z,0.77
2022-09-05T11:42:27.330Z,0.80
2022-09-05T11:45:11.079Z,0.63
2022-09-05T11:48:01.999Z,0.60
2022-09-05T11:50:53.828Z,1.00
2022-09-05T11:53:40.343Z,0.98
2022-09-05T11:56:38.028Z,1.00
2022-09-05T11:59:49.443Z,0.98
2022-09-05T12:03:05.254Z,0.85
2022-09-05T12:05:58.724Z,1.15
2022-09-05T12:08:44.392Z,1.00
2022-09-05T12:11:39.698Z,0.98
2022-09-05T12:14:33.950Z,0.75
2022-09-05T12:17:35.002Z,0.70
2022-09-05T12:20:16.752Z,0.85
2022-09-05T12:23:49.278Z,0.90
2022-09-05T12:27:38.831Z,0.95
2022-09-05T12:29:29.456Z,1.60
2022-09-05T12:33:52.396Z,0.77
2022-09-05T12:36:12.539Z,0.90
2022-09-05T12:40:54.651Z,0.98
2022-09-05T12:41:46.269Z,0.70
2022-09-05T12:44:41.794Z,0.77
2022-09-05T12:47:16.678Z,0.80
2022-09-05T12:50:02.599Z,0.80
2022-09-05T12:52:33.940Z,0.88
2022-09-05T12:55:08.048Z,1.00
2022-09-05T13:02:53.350Z,0.70
2022-09-05T13:03:08.338Z,0.98
2022-09-05T13:03:29.520Z,1.10
2022-09-05T13:05:59.597Z,1.00
2022-09-05T13:08:40.089Z,0.70
2022-09-05T13:14:50.869Z,1.00
2022-09-05T13:14:54.035Z,1.17
2022-09-05T13:16:52.232Z,0.80
2022-09-05T13:19:43.532Z,0.95
2022-09-05T13:22:13.721Z,0.73
2022-09-05T13:24:44.939Z,1.00
2022-09-05T13:27:39.554Z,0.88
2022-09-05T13:35:38.073Z,1.05
2022-09-05T13:38:07.747Z,0.80
2022-09-05T13:38:13.079Z,1.00
2022-09-05T13:39:18.045Z,1.00
2022-09-05T13:41:51.125Z,0.70
2022-09-05T13:44:26.613Z,0.65
2022-09-05T13:47:28.363Z,0.70
2022-09-05T13:50:13.631Z,0.60
2022-09-05T13:52:52.655Z,0.70
2022-09-05T13:55:34.832Z,0.70
2022-09-05T13:58:24.245Z,0.70
2022-09-05T14:01:12.144Z,0.68
2022-09-05T14:03:57.523Z,0.90
2022-09-05T14:06:45.270Z,0.85
2022-09-05T14:09:35.680Z,0.93
2022-09-05T14:12:08.598Z,0.93
2022-09-05T14:17:58.109Z,0.85
2022-09-05T14:20:49.846Z,0.70
2022-09-05T14:23:19.033Z,0.82
2022-09-05T14:26:00.506Z,0.80
2022-09-05T14:28:33.747Z,0.80
2022-09-05T14:36:10.949Z,0.80
2022-09-05T14:37:42.476Z,1.00
2022-09-05T14:38:13.617Z,0.90
2022-09-05T14:40:58.560Z,0.90
2022-09-05T14:44:00.180Z,1.08
2022-09-05T14:47:03.348Z,0.80
2022-09-05T14:49:58.222Z,1.10
2022-09-05T14:52:32.472Z,1.08
2022-09-05T15:02:39.313Z,0.82
2022-09-05T15:03:00.809Z,0.77
2022-09-05T15:06:39.140Z,0.80
2022-09-05T15:12:00.997Z,0.90
2022-09-05T15:12:28.047Z,0.90
2022-09-05T15:15:20.233Z,0.80
2022-09-05T15:17:50.154Z,0.93
2022-09-05T15:20:38.504Z,1.00
2022-09-05T15:23:16.914Z,0.93
2022-09-05T15:25:47.166Z,0.80
2022-09-05T15:28:40.999Z,1.40
2022-09-05T15:31:23.368Z,0.80
2022-09-05T15:33:52.565Z,1.00
2022-09-05T15:36:32.713Z,0.90
2022-09-05T15:39:04.136Z,1.00
2022-09-05T15:41:43.207Z,0.80
2022-09-05T15:44:14.117Z,0.80
2022-09-05T15:46:49.416Z,1.05
2022-09-05T15:49:30.905Z,0.80
2022-09-05T15:52:02.521Z,1.10
2022-09-05T15:54:39.198Z,1.08
2022-09-05T15:57:14.488Z,1.05
2022-09-05T15:59:48.999Z,0.80
2022-09-05T16:02:24.343Z,1.05
2022-09-05T16:10:31.287Z,1.10
2022-09-05T16:10:39.106Z,0.88
2022-09-05T16:11:20.404Z,1.02
2022-09-05T16:13:33.813Z,0.90
2022-09-05T16:23:11.953Z,0.80
2022-09-05T16:23:17.946Z,0.85
2022-09-05T16:23:24.301Z,0.95
2022-09-05T16:25:00.897Z,1.17
2022-09-05T16:28:01.146Z,1.10
2022-09-05T16:30:35.498Z,0.90
2022-09-05T16:33:16.523Z,0.80
2022-09-05T16:35:58.084Z,0.90
2022-09-05T16:38:49.947Z,1.10
2022-09-05T16:41:39.009Z,1.00
2022-09-05T16:44:31.101Z,0.90
2022-09-05T16:47:36.440Z,0.90
2022-09-05T16:50:24.103Z,0.90
2022-09-05T16:52:53.717Z,1.10
2022-09-05T16:55:36.490Z,0.73
2022-09-05T16:58:12.552Z,0.88
2022-09-05T17:00:53.137Z,1.10
2022-09-05T17:03:29.179Z,1.08
2022-09-05T17:06:25.648Z,1.02
2022-09-05T17:09:03.216Z,1.10
2022-09-05T17:12:00.929Z,1.10
2022-09-05T17:14:42.009Z,1.10
2022-09-05T17:17:41.532Z,1.00
2022-09-05T17:20:14.512Z,1.08
2022-09-05T17:26:48.905Z,1.38
2022-09-05T17:29:24.239Z,1.10
2022-09-05T17:30:37.740Z,1.15
2022-09-05T17:31:55.794Z,1.20
2022-09-05T17:34:42.584Z,1.40
2022-09-05T17:37:27.685Z,1.70
2022-09-05T17:40:07.003Z,1.50
2022-09-05T17:43:00.955Z,1.40
2022-09-05T17:45:59.606Z,1.42
2022-09-05T17:49:18.804Z,1.50
2022-09-05T17:51:38.245Z,1.90
2022-09-05T17:54:20.245Z,1.48
2022-09-05T17:56:48.509Z,1.30
2022-09-05T17:59:21.231Z,1.25
2022-09-05T18:02:03.539Z,1.30
2022-09-05T18:04:51.224Z,1.50
2022-09-05T18:07:26.608Z,2.03
2022-09-05T18:15:36.249Z,1.60
2022-09-05T18:18:16.907Z,1.60
2022-09-05T18:21:12.239Z,1.70
2022-09-05T18:26:43.118Z,1.95
2022-09-05T18:29:57.641Z,1.98
2022-09-05T18:32:11.946Z,2.00
2022-09-05T18:34:40.924Z,2.10
2022-09-05T18:37:51.412Z,2.30
2022-09-05T18:40:48.221Z,2.78
2022-09-05T18:43:28.941Z,2.90
2022-09-05T18:46:08.077Z,2.35
2022-09-05T18:49:44.953Z,2.30
2022-09-05T18:51:49.217Z,2.80
2022-09-05T18:54:18.429Z,2.70
2022-09-05T18:57:27.010Z,2.53
2022-09-05T18:59:48.506Z,2.75
2022-09-05T19:02:50.311Z,2.80
2022-09-05T19:05:28.401Z,2.45
2022-09-05T19:07:59.359Z,2.70
2022-09-05T19:10:35.622Z,2.88
2022-09-05T19:13:31.723Z,2.65
2022-09-05T19:16:42.204Z,2.70
2022-09-05T19:19:16.026Z,2.65
2022-09-05T19:22:09.140Z,3.03
2022-09-05T19:24:44.899Z,2.95
2022-09-05T19:28:01.474Z,2.67
2022-09-05T19:36:53.898Z,2.42
2022-09-05T19:37:05.922Z,2.50
2022-09-05T19:37:08.703Z,2.53
2022-09-05T19:38:34.097Z,2.50
2022-09-05T19:47:26.565Z,2.80
2022-09-05T19:47:34.563Z,2.40
2022-09-05T19:47:56.508Z,2.33
2022-09-05T19:50:12.679Z,2.25
2022-09-05T19:52:39.907Z,2.22
2022-09-05T19:55:26.019Z,2.47
2022-09-05T19:58:18.396Z,2.78
2022-09-05T20:00:45.952Z,2.58
2022-09-05T20:03:27.555Z,2.55
2022-09-05T20:05:54.448Z,2.25
2022-09-05T20:08:33.431Z,2.55
2022-09-05T20:11:02.340Z,2.55
2022-09-05T20:13:29.200Z,2.20
2022-09-05T20:15:56.066Z,2.50
2022-09-05T20:18:28.343Z,2.70
2022-09-05T20:21:08.708Z,2.80
2022-09-05T20:23:37.426Z,2.55
2022-09-05T20:26:04.432Z,2.60
2022-09-05T20:28:35.809Z,2.90
2022-09-05T20:31:12.190Z,2.75
2022-09-05T20:33:48.503Z,2.85
2022-09-05T20:43:10.885Z,2.58
2022-09-05T20:43:20.650Z,2.60
2022-09-05T20:43:28.824Z,2.83
2022-09-05T20:45:01.205Z,2.85
2022-09-05T20:51:33.144Z,2.92
2022-09-05T20:54:21.352Z,2.95
2022-09-05T20:54:23.204Z,3.13
2022-09-05T20:56:26.721Z,2.72
2022-09-05T20:58:58.497Z,2.63
2022-09-05T21:01:26.566Z,2.65
2022-09-05T21:04:01.808Z,2.53
2022-09-05T21:06:36.290Z,2.40
2022-09-05T21:09:24.499Z,2.38
2022-09-05T21:11:58.803Z,2.55
2022-09-05T21:14:28.186Z,2.47
2022-09-05T21:17:15.006Z,2.20
2022-09-05T21:19:53.660Z,2.45
2022-09-05T21:22:21.292Z,2.53
2022-09-05T21:25:07.485Z,2.50
2022-09-05T21:27:35.684Z,2.60
2022-09-05T21:30:35.983Z,2.53
2022-09-05T21:33:06.299Z,2.50
2022-09-05T21:35:43.477Z,2.72
2022-09-05T21:38:13.460Z,2.60
2022-09-05T21:40:41.889Z,2.85
2022-09-05T21:47:32.924Z,2.90
2022-09-05T21:47:49.673Z,2.38
2022-09-05T21:48:46.353Z,2.45
2022-09-05T21:51:15.978Z,2.40
2022-09-05T21:59:19.002Z,2.30
2022-09-05T21:59:19.732Z,2.03
2022-09-05T21:59:46.625Z,2.13
2022-09-05T22:02:15.657Z,2.15
2022-09-05T22:04:42.502Z,2.10
2022-09-05T22:07:25.023Z,2.30
2022-09-05T22:10:01.155Z,2.15
2022-09-05T22:12:31.588Z,2.00
2022-09-05T22:15:04.519Z,1.90
2022-09-05T22:17:47.154Z,2.05
2022-09-05T22:20:19.479Z,1.90
2022-09-05T22:22:55.619Z,2.00
2022-09-05T22:25:31.149Z,2.10
2022-09-05T22:28:10.610Z,2.10
2022-09-05T22:30:38.752Z,2.20
2022-09-05T22:33:06.220Z,2.08
2022-09-05T22:35:34.749Z,1.90
2022-09-05T22:38:09.679Z,2.30
2022-09-05T22:40:41.496Z,2.25
2022-09-05T22:43:10.024Z,2.33
2022-09-05T22:45:39.680Z,2.33
2022-09-05T22:48:11.742Z,2.08
2022-09-05T22:50:39.539Z,2.20
2022-09-05T22:53:08.627Z,2.20
2022-09-05T22:55:41.168Z,2.17
2022-09-05T22:58:10.452Z,2.28
2022-09-05T23:00:37.742Z,2.10
2022-09-05T23:03:06.534Z,2.30
2022-09-05T23:05:36.399Z,2.25
2022-09-05T23:08:05.870Z,2.20
2022-09-05T23:10:34.204Z,2.35
2022-09-05T23:13:05.435Z,2.15
2022-09-05T23:15:32.600Z,2.38
2022-09-05T23:18:00.967Z,2.47
2022-09-05T23:20:29.885Z,2.40
2022-09-05T23:22:57.764Z,2.10
2022-09-05T23:25:24.805Z,2.38
2022-09-05T23:27:51.640Z,2.35
2022-09-05T23:30:18.504Z,2.35
2022-09-05T23:32:46.485Z,2.50
2022-09-05T23:35:14.284Z,2.08
2022-09-05T23:37:43.587Z,2.25
2022-09-05T23:40:14.450Z,2.67
2022-09-05T23:42:41.525Z,2.28
2022-09-05T23:45:09.364Z,2.30
2022-09-05T23:47:37.224Z,2.20
2022-09-05T23:50:05.066Z,2.92
2022-09-05T23:52:37.386Z,2.33
2022-09-05T23:55:04.575Z,2.40
2022-09-05T23:57:31.458Z,2.17
2022-09-05T23:59:58.260Z,2.05
